Time;durP1;ratioP1;P1;durP2;ratioP2;P2;SDS_P1;SDS_P2;PMS_P1;PMS_P2;Temp;Humidity;BMP_temperature;BMP_pressure;BME280_temperature;BME280_humidity;BME280_pressure;Samples;Min_cycle;Max_cycle;Signal;HPM_P1;HPM_P2
2022/03/02 00:01:48;;;;;;;;;71.50;56.75;5.60;68.50;;;;;;4918092;29;8810;-67
2022/03/02 00:04:14;;;;;;;;;65.75;54.00;5.60;69.50;;;;;;4918316;29;8795;-67
2022/03/02 00:06:40;;;;;;;;;69.75;54.25;5.60;69.00;;;;;;4917130;29;8906;-67
2022/03/02 00:09:06;;;;;;;;;73.00;60.50;5.40;69.80;;;;;;4918013;29;8929;-68
2022/03/02 00:11:31;;;;;;;;;96.50;75.75;5.60;69.70;;;;;;4917873;29;8791;-66
2022/03/02 00:14:00;;;;;;;;;67.00;55.50;5.70;69.10;;;;;;4918054;29;8813;-68
2022/03/02 00:16:29;;;;;;;;;77.75;61.50;5.80;68.60;;;;;;4917982;29;8875;-67
2022/03/02 00:18:58;;;;;;;;;75.50;61.25;6.00;67.40;;;;;;4918098;29;8791;-66
2022/03/02 00:21:25;;;;;;;;;69.25;57.00;6.30;65.80;;;;;;4916861;29;8791;-66
2022/03/02 00:23:51;;;;;;;;;64.75;49.50;6.10;66.80;;;;;;4915673;29;8790;-67
2022/03/02 00:26:18;;;;;;;;;57.75;49.00;5.70;65.40;;;;;;4916195;29;8960;-67
2022/03/02 00:28:44;;;;;;;;;71.25;55.00;6.00;66.10;;;;;;4916597;29;8782;-67
2022/03/02 00:31:10;;;;;;;;;70.75;56.75;6.10;65.90;;;;;;4916625;29;8889;-68
2022/03/02 00:33:36;;;;;;;;;64.25;53.50;6.30;64.70;;;;;;4917873;29;8860;-67
2022/03/02 00:36:03;;;;;;;;;62.75;51.25;6.60;62.80;;;;;;4917909;29;8924;-68
2022/03/02 00:38:29;;;;;;;;;65.50;54.75;6.80;61.70;;;;;;4917659;29;8790;-67
2022/03/02 00:40:55;;;;;;;;;64.50;52.25;6.60;62.00;;;;;;4915734;29;8799;-67
2022/03/02 00:43:21;;;;;;;;;58.50;51.25;6.30;63.50;;;;;;4901492;29;8807;-67
2022/03/02 00:45:48;;;;;;;;;66.00;56.00;5.90;63.80;;;;;;4917745;29;8841;-68
2022/03/02 00:48:14;;;;;;;;;67.00;54.50;5.70;66.70;;;;;;4917827;29;8790;-67
2022/03/02 00:50:40;;;;;;;;;76.50;60.50;5.70;67.10;;;;;;4917745;29;8903;-67
2022/03/02 00:53:07;;;;;;;;;69.00;55.75;5.60;67.10;;;;;;4918014;29;8833;-66
2022/03/02 00:55:35;;;;;;;;;88.50;68.25;5.50;65.70;;;;;;4916984;29;8796;-67
2022/03/02 00:58:02;;;;;;;;;82.50;64.00;5.90;64.20;;;;;;4917915;29;8814;-67
2022/03/02 01:00:28;;;;;;;;;86.75;68.75;6.00;63.70;;;;;;4917949;29;8783;-66
2022/03/02 01:02:54;;;;;;;;;68.75;56.50;6.10;62.50;;;;;;4917648;29;9477;-67
2022/03/02 01:05:20;;;;;;;;;52.00;46.25;5.70;63.60;;;;;;4917603;29;8822;-67
2022/03/02 01:07:46;;;;;;;;;59.00;47.25;5.40;65.20;;;;;;4917499;29;8898;-67
2022/03/02 01:10:12;;;;;;;;;56.50;49.00;5.70;64.70;;;;;;4917867;29;8898;-67
2022/03/02 01:12:39;;;;;;;;;61.50;50.75;6.00;62.80;;;;;;4917249;29;8775;-67
2022/03/02 01:15:07;;;;;;;;;55.50;46.75;5.80;63.50;;;;;;4917832;29;8846;-67
2022/03/02 01:17:33;;;;;;;;;58.75;49.50;5.70;62.90;;;;;;4917781;29;8822;-67
2022/03/02 01:19:59;;;;;;;;;60.00;48.75;6.40;61.20;;;;;;4920061;29;8780;-67
2022/03/02 01:22:25;;;;;;;;;50.50;45.75;6.50;59.40;;;;;;4920867;29;8788;-67
2022/03/02 01:24:51;;;;;;;;;58.50;47.75;6.30;60.00;;;;;;4920839;29;8807;-67
2022/03/02 01:27:16;;;;;;;;;62.50;51.25;6.00;60.60;;;;;;4921114;29;8867;-67
2022/03/02 01:29:42;;;;;;;;;62.00;52.75;6.00;61.10;;;;;;4920304;29;8918;-68
2022/03/02 01:32:09;;;;;;;;;65.00;53.25;6.10;61.50;;;;;;4920641;29;9426;-67
2022/03/02 01:34:37;;;;;;;;;56.75;48.75;5.70;63.10;;;;;;4921097;29;8804;-67
2022/03/02 01:37:03;;;;;;;;;60.25;51.00;5.80;63.20;;;;;;4920641;29;8803;-67
2022/03/02 01:39:30;;;;;;;;;63.25;52.00;5.70;63.30;;;;;;4920835;29;9603;-68
2022/03/02 01:41:56;;;;;;;;;56.50;46.75;5.80;64.00;;;;;;4920561;29;8779;-68
2022/03/02 01:44:22;;;;;;;;;61.25;51.25;6.00;62.30;;;;;;4920542;29;8763;-66
2022/03/02 01:46:48;;;;;;;;;64.75;53.00;5.60;64.30;;;;;;4919824;29;8829;-67
2022/03/02 01:49:14;;;;;;;;;62.50;51.50;5.70;64.30;;;;;;4920812;29;9407;-66
2022/03/02 01:51:40;;;;;;;;;61.00;49.50;5.80;64.30;;;;;;4920296;29;8791;-67
2022/03/02 01:54:06;;;;;;;;;57.00;48.00;5.90;63.50;;;;;;4920612;29;8787;-66
2022/03/02 01:56:34;;;;;;;;;65.50;49.75;5.70;63.90;;;;;;4920411;29;8767;-68
2022/03/02 01:59:00;;;;;;;;;64.75;53.25;5.60;65.20;;;;;;4920489;29;8783;-67
2022/03/02 02:01:27;;;;;;;;;58.25;49.50;5.80;65.00;;;;;;4920444;29;8787;-66
2022/03/02 02:03:53;;;;;;;;;66.75;55.75;5.60;64.90;;;;;;4920305;29;8823;-68
2022/03/02 02:06:19;;;;;;;;;62.00;51.25;5.70;65.10;;;;;;4920132;29;8898;-66
2022/03/02 02:08:45;;;;;;;;;53.75;45.50;6.00;64.20;;;;;;4919950;29;8930;-66
2022/03/02 02:11:13;;;;;;;;;65.25;53.00;5.90;63.40;;;;;;4920256;29;8797;-68
2022/03/02 02:13:39;;;;;;;;;67.00;53.25;6.00;63.70;;;;;;4920016;29;8787;-68
2022/03/02 02:16:05;;;;;;;;;61.25;49.75;6.00;62.80;;;;;;4919283;29;8817;-68
2022/03/02 02:18:33;;;;;;;;;65.75;53.00;6.20;62.40;;;;;;4920149;29;8788;-68
2022/03/02 02:21:06;;;;;;;;;64.00;51.00;6.30;62.00;;;;;;4920102;29;8866;-66
2022/03/02 02:23:32;;;;;;;;;42.75;39.25;5.70;63.60;;;;;;4920083;29;8767;-67
2022/03/02 02:25:57;;;;;;;;;63.00;50.00;5.80;63.80;;;;;;4919930;29;8941;-66
2022/03/02 02:28:27;;;;;;;;;62.75;50.00;5.50;64.00;;;;;;4919695;29;9430;-68
2022/03/02 02:30:55;;;;;;;;;61.25;50.75;5.40;65.50;;;;;;4919343;29;8808;-66
2022/03/02 02:33:22;;;;;;;;;69.75;56.25;5.80;64.60;;;;;;4919693;29;8819;-66
2022/03/02 02:35:47;;;;;;;;;57.25;47.50;6.20;62.20;;;;;;4919585;29;8865;-68
2022/03/02 02:38:15;;;;;;;;;57.50;49.75;6.00;62.40;;;;;;4919730;29;8799;-67
2022/03/02 02:40:41;;;;;;;;;60.75;53.00;5.70;64.30;;;;;;4919685;29;8803;-67
2022/03/02 02:43:07;;;;;;;;;65.50;52.75;5.60;64.80;;;;;;4919742;29;8784;-68
2022/03/02 02:45:33;;;;;;;;;64.25;50.75;5.80;63.20;;;;;;4919271;29;9496;-68
2022/03/02 02:47:59;;;;;;;;;61.25;50.50;5.60;64.40;;;;;;4918985;29;8929;-67
2022/03/02 02:50:30;;;;;;;;;57.50;48.75;5.60;64.20;;;;;;4919261;29;8879;-66
2022/03/02 02:52:58;;;;;;;;;60.25;47.25;5.30;67.00;;;;;;4919262;29;8768;-66
2022/03/02 02:55:27;;;;;;;;;64.00;51.50;5.10;65.60;;;;;;4919289;29;8776;-66
2022/03/02 02:57:55;;;;;;;;;60.75;49.00;5.40;65.80;;;;;;4919213;29;8827;-66
2022/03/02 03:00:23;;;;;;;;;56.00;44.50;5.60;64.50;;;;;;4919353;29;8783;-66
2022/03/02 03:02:52;;;;;;;;;51.25;45.50;5.30;65.10;;;;;;4918370;29;8820;-68
2022/03/02 03:05:20;;;;;;;;;62.00;52.25;5.60;65.10;;;;;;4919367;29;8826;-66
2022/03/02 03:07:47;;;;;;;;;59.25;48.50;5.70;63.30;;;;;;4918815;29;8803;-67
2022/03/02 03:10:14;;;;;;;;;59.75;50.50;5.80;63.80;;;;;;4919007;29;8870;-67
2022/03/02 03:12:42;;;;;;;;;63.50;52.75;5.90;62.50;;;;;;4919031;29;8790;-67
2022/03/02 03:15:11;;;;;;;;;56.25;47.25;5.90;62.20;;;;;;4902215;29;8794;-67
2022/03/02 03:17:37;;;;;;;;;59.75;49.75;5.80;62.30;;;;;;4918163;29;8917;-68
2022/03/02 03:20:06;;;;;;;;;64.00;52.25;5.80;61.70;;;;;;4918283;29;8818;-68
2022/03/02 03:22:32;;;;;;;;;60.50;50.75;5.90;62.40;;;;;;4918982;29;8786;-68
2022/03/02 03:24:57;;;;;;;;;43.75;39.50;6.00;61.10;;;;;;4918940;29;8814;-66
2022/03/02 03:27:23;;;;;;;;;57.00;47.75;6.20;60.10;;;;;;4918870;29;9458;-68
2022/03/02 03:29:49;;;;;;;;;56.50;48.00;6.30;59.50;;;;;;4918676;29;8787;-67
2022/03/02 03:32:16;;;;;;;;;64.25;49.50;6.00;59.70;;;;;;4918172;29;8995;-68
2022/03/02 03:34:42;;;;;;;;;49.25;42.00;6.10;59.40;;;;;;4918312;29;8841;-67
2022/03/02 03:37:08;;;;;;;;;58.25;49.00;6.10;59.50;;;;;;4918784;29;8878;-67
2022/03/02 03:39:34;;;;;;;;;51.50;43.25;5.70;61.30;;;;;;4918566;29;8814;-67
2022/03/02 03:42:00;;;;;;;;;59.00;50.00;5.70;60.80;;;;;;4917836;29;8779;-66
2022/03/02 03:44:26;;;;;;;;;50.00;43.00;5.40;62.30;;;;;;4918404;29;8787;-68
2022/03/02 03:46:52;;;;;;;;;52.75;45.75;5.30;62.30;;;;;;4918697;29;8897;-68
2022/03/02 03:49:18;;;;;;;;;59.75;48.50;5.30;62.30;;;;;;4918088;29;8772;-68
2022/03/02 03:51:44;;;;;;;;;59.75;48.00;5.40;62.60;;;;;;4918417;29;8792;-68
2022/03/02 03:54:10;;;;;;;;;46.75;43.75;5.40;62.30;;;;;;4918325;29;8796;-68
2022/03/02 03:56:36;;;;;;;;;54.75;46.00;5.30;62.70;;;;;;4918346;29;8806;-67
2022/03/02 03:59:03;;;;;;;;;42.50;35.75;5.20;63.40;;;;;;4918334;29;8778;-66
2022/03/02 04:01:30;;;;;;;;;57.75;49.75;5.40;62.90;;;;;;4918450;29;8789;-67
2022/03/02 04:03:56;;;;;;;;;57.50;48.00;5.30;62.60;;;;;;4918448;29;8819;-68
2022/03/02 04:06:22;;;;;;;;;59.50;49.50;5.40;62.40;;;;;;4917866;29;8949;-66
2022/03/02 04:08:48;;;;;;;;;52.75;43.00;5.90;60.80;;;;;;4918027;29;8803;-66
2022/03/02 04:11:14;;;;;;;;;54.25;48.75;5.60;61.40;;;;;;4918065;29;8910;-66
2022/03/02 04:13:40;;;;;;;;;56.75;47.75;5.50;61.40;;;;;;4918181;29;8813;-66
2022/03/02 04:16:06;;;;;;;;;55.25;46.75;5.90;60.40;;;;;;4918095;29;8787;-67
2022/03/02 04:18:32;;;;;;;;;54.50;45.75;5.30;62.80;;;;;;4918232;29;8775;-68
2022/03/02 04:20:59;;;;;;;;;60.25;50.75;5.30;63.50;;;;;;4917157;29;8783;-66
2022/03/02 04:23:25;;;;;;;;;46.50;43.00;5.10;63.40;;;;;;4917958;29;8791;-66
2022/03/02 04:25:51;;;;;;;;;65.75;48.25;4.80;64.80;;;;;;4917860;29;8807;-66
2022/03/02 04:28:17;;;;;;;;;57.50;49.50;5.30;63.50;;;;;;4917951;29;8798;-68
2022/03/02 04:30:43;;;;;;;;;59.75;50.75;5.00;63.70;;;;;;4917967;29;8883;-66
2022/03/02 04:33:09;;;;;;;;;59.00;48.75;5.20;63.10;;;;;;4917895;29;8823;-68
2022/03/02 04:35:35;;;;;;;;;57.75;46.75;5.00;63.80;;;;;;4917529;29;8791;-66
2022/03/02 04:38:03;;;;;;;;;61.75;50.25;5.00;64.80;;;;;;4917873;29;8863;-68
2022/03/02 04:40:29;;;;;;;;;62.50;51.25;4.60;66.20;;;;;;4917686;29;8799;-66
2022/03/02 04:42:56;;;;;;;;;56.50;46.75;4.60;67.00;;;;;;4917207;29;8888;-66
2022/03/02 04:45:27;;;;;;;;;59.00;45.50;5.00;65.20;;;;;;4917699;29;8894;-66
2022/03/02 04:47:54;;;;;;;;;53.50;47.25;5.30;64.50;;;;;;4918128;29;9508;-66
2022/03/02 04:50:21;;;;;;;;;59.75;49.75;5.40;63.40;;;;;;4917142;29;8799;-66
2022/03/02 04:52:48;;;;;;;;;53.00;42.00;5.10;64.80;;;;;;4918861;29;8791;-66
2022/03/02 04:55:16;;;;;;;;;48.25;44.50;5.40;63.20;;;;;;4921396;29;8775;-66
2022/03/02 04:57:47;;;;;;;;;55.50;45.25;5.10;63.80;;;;;;4921255;29;8807;-66
2022/03/02 05:00:19;;;;;;;;;54.25;46.25;5.10;63.90;;;;;;4921563;29;8787;-66
2022/03/02 05:02:46;;;;;;;;;59.00;50.00;5.10;64.50;;;;;;4904493;29;8945;-66
2022/03/02 05:05:14;;;;;;;;;58.00;48.00;5.40;62.80;;;;;;4921189;29;8814;-66
2022/03/02 05:07:41;;;;;;;;;58.00;49.50;5.10;63.90;;;;;;4902508;29;8827;-66
2022/03/02 05:10:08;;;;;;;;;52.75;43.75;4.90;64.20;;;;;;4902549;29;8799;-66
2022/03/02 05:12:35;;;;;;;;;57.50;49.00;4.40;66.80;;;;;;4902473;29;8772;-66
2022/03/02 05:15:01;;;;;;;;;62.50;46.75;4.60;66.70;;;;;;4902388;29;8811;-66
2022/03/02 05:17:27;;;;;;;;;56.00;47.25;5.00;65.10;;;;;;4902330;29;8887;-66
2022/03/02 05:19:54;;;;;;;;;57.50;49.00;5.10;65.60;;;;;;4902081;29;8808;-66
2022/03/02 05:22:20;;;;;;;;;57.00;49.00;5.10;65.30;;;;;;4902038;29;8908;-66
2022/03/02 05:24:46;;;;;;;;;60.50;49.50;5.30;63.70;;;;;;4910329;29;8823;-65
2022/03/02 05:27:12;;;;;;;;;56.50;50.00;5.40;64.30;;;;;;4904102;29;8790;-66
2022/03/02 05:29:38;;;;;;;;;63.50;52.25;5.20;63.20;;;;;;4920779;29;8775;-66
2022/03/02 05:32:05;;;;;;;;;63.00;53.25;4.90;64.80;;;;;;4920817;29;8780;-66
2022/03/02 05:34:30;;;;;;;;;68.75;52.75;4.70;65.60;;;;;;4920987;29;8933;-66
2022/03/02 05:36:56;;;;;;;;;60.50;50.25;4.70;66.30;;;;;;4920934;29;8898;-65
2022/03/02 05:39:25;;;;;;;;;50.75;44.75;4.80;65.00;;;;;;4919216;29;8803;-66
2022/03/02 05:41:51;;;;;;;;;59.75;50.00;4.80;64.70;;;;;;4919040;29;8796;-66
2022/03/02 05:44:17;;;;;;;;;59.00;50.25;4.80;63.90;;;;;;4920421;29;9508;-66
2022/03/02 05:46:43;;;;;;;;;60.25;47.75;4.70;64.40;;;;;;4920387;29;8831;-66
2022/03/02 05:49:09;;;;;;;;;45.00;39.75;4.90;63.40;;;;;;4918492;29;8799;-67
2022/03/02 05:51:36;;;;;;;;;49.50;43.75;5.30;62.40;;;;;;4920029;29;8921;-67
2022/03/02 05:54:08;;;;;;;;;51.00;43.25;5.50;61.00;;;;;;4920018;29;8806;-67
2022/03/02 05:56:34;;;;;;;;;48.00;44.25;4.90;62.50;;;;;;4920640;29;8807;-69
2022/03/02 05:59:00;;;;;;;;;57.75;48.75;5.20;62.70;;;;;;4920500;29;8791;-67
2022/03/02 06:01:26;;;;;;;;;50.75;46.50;4.80;63.20;;;;;;4919176;29;8866;-65
2022/03/02 06:03:52;;;;;;;;;57.75;49.75;4.80;63.40;;;;;;4919835;29;8907;-67
2022/03/02 06:06:18;;;;;;;;;48.75;42.25;4.70;64.40;;;;;;4919116;29;8823;-67
2022/03/02 06:08:45;;;;;;;;;56.25;47.00;4.50;64.70;;;;;;4919445;29;8839;-63
2022/03/02 06:11:11;;;;;;;;;56.75;46.25;4.30;66.80;;;;;;4919603;29;8910;-63
2022/03/02 06:13:37;;;;;;;;;58.25;47.50;4.20;67.80;;;;;;4920202;29;8928;-63
2022/03/02 06:16:03;;;;;;;;;59.75;50.00;4.60;66.40;;;;;;4920181;29;9596;-64
2022/03/02 06:18:29;;;;;;;;;58.00;48.00;4.70;65.30;;;;;;4919995;29;8889;-63
2022/03/02 06:21:02;;;;;;;;;59.50;48.00;4.60;65.60;;;;;;4920153;29;8858;-63
2022/03/02 06:23:32;;;;;;;;;66.25;48.50;4.70;66.30;;;;;;4920135;29;8771;-63
2022/03/02 06:25:58;;;;;;;;;57.25;49.75;4.70;65.10;;;;;;4919951;29;8815;-64
2022/03/02 06:28:25;;;;;;;;;60.75;47.75;4.80;64.50;;;;;;4920001;29;8903;-63
2022/03/02 06:30:51;;;;;;;;;59.25;48.50;4.70;65.30;;;;;;4919938;29;8809;-63
2022/03/02 06:33:19;;;;;;;;;55.75;47.25;5.00;63.40;;;;;;4919538;29;9013;-63
2022/03/02 06:35:46;;;;;;;;;63.50;50.50;4.50;65.20;;;;;;4919782;29;8802;-63
2022/03/02 06:38:12;;;;;;;;;53.25;45.25;4.40;67.20;;;;;;4919597;29;8763;-64
2022/03/02 06:40:38;;;;;;;;;56.75;47.25;4.50;66.40;;;;;;4919568;29;8802;-64
2022/03/02 06:43:17;;;;;;;;;58.75;46.00;4.90;65.10;;;;;;4919462;29;8906;-63
2022/03/02 06:45:58;;;;;;;;;57.50;49.50;4.60;65.10;;;;;;4919396;29;8858;-63
2022/03/02 06:48:33;;;;;;;;;59.25;46.50;4.60;65.30;;;;;;4919432;29;8775;-64
2022/03/02 06:51:01;;;;;;;;;64.75;51.50;4.60;65.40;;;;;;4919412;29;8783;-64
2022/03/02 06:53:36;;;;;;;;;61.00;49.25;5.00;63.70;;;;;;4919319;29;8779;-63
2022/03/02 06:56:08;;;;;;;;;51.50;44.25;5.10;62.80;;;;;;4919254;29;8803;-63
2022/03/02 06:58:49;;;;;;;;;56.25;47.25;4.50;63.40;;;;;;4919096;29;8924;-64
2022/03/02 07:01:28;;;;;;;;;57.25;45.75;4.60;64.50;;;;;;4919054;29;8905;-64
2022/03/02 07:03:59;;;;;;;;;49.50;44.00;4.60;63.70;;;;;;4919463;29;8815;-64
2022/03/02 07:06:26;;;;;;;;;57.00;48.75;4.30;64.00;;;;;;4919174;29;8925;-64
2022/03/02 07:08:54;;;;;;;;;55.50;45.50;4.40;63.70;;;;;;4918930;29;8881;-64
2022/03/02 07:11:21;;;;;;;;;60.25;46.50;4.30;63.80;;;;;;4919216;29;8775;-64
2022/03/02 07:13:48;;;;;;;;;60.00;49.50;4.60;62.40;;;;;;4919138;29;8790;-63
2022/03/02 07:16:16;;;;;;;;;55.75;44.00;4.30;64.00;;;;;;4919062;29;9498;-64
2022/03/02 07:18:42;;;;;;;;;57.25;46.75;4.20;64.30;;;;;;4919059;29;8834;-64
2022/03/02 07:21:13;;;;;;;;;50.75;41.50;4.20;64.50;;;;;;4901978;29;8792;-64
2022/03/02 07:23:46;;;;;;;;;54.00;47.00;4.20;64.20;;;;;;4918747;29;8812;-64
2022/03/02 07:26:13;;;;;;;;;39.25;34.75;4.30;63.40;;;;;;4918650;29;8819;-64
2022/03/02 07:28:39;;;;;;;;;54.00;46.25;4.50;62.80;;;;;;4918767;29;8779;-63
2022/03/02 07:31:08;;;;;;;;;47.75;41.50;4.80;61.40;;;;;;4918961;29;8783;-64
2022/03/02 07:33:37;;;;;;;;;57.00;47.25;4.50;61.20;;;;;;4918773;29;8823;-65
2022/03/02 07:36:03;;;;;;;;;53.25;46.25;4.80;61.20;;;;;;4918851;29;9513;-63
2022/03/02 07:38:32;;;;;;;;;55.75;47.50;5.00;60.40;;;;;;4918619;29;8854;-63
2022/03/02 07:40:57;;;;;;;;;56.25;47.25;4.70;61.30;;;;;;4918501;29;8791;-63
2022/03/02 07:43:23;;;;;;;;;45.25;41.75;4.80;61.00;;;;;;4918348;29;8827;-64
2022/03/02 07:45:50;;;;;;;;;60.00;46.00;5.00;61.00;;;;;;4918558;29;8803;-63
2022/03/02 07:48:16;;;;;;;;;51.50;43.50;5.30;59.00;;;;;;4918299;29;8799;-63
2022/03/02 07:50:43;;;;;;;;;57.25;45.50;5.60;58.40;;;;;;4918295;29;8787;-63
2022/03/02 07:53:10;;;;;;;;;52.50;45.00;5.50;57.70;;;;;;4918411;29;8882;-63
2022/03/02 07:55:37;;;;;;;;;52.75;46.50;5.00;58.80;;;;;;4918249;29;8791;-63
2022/03/02 07:58:04;;;;;;;;;52.50;45.25;5.10;57.30;;;;;;4918437;29;9532;-62
2022/03/02 08:00:30;;;;;;;;;51.50;44.00;5.20;58.00;;;;;;4918125;29;8800;-63
2022/03/02 08:03:00;;;;;;;;;39.25;38.25;4.70;59.30;;;;;;4918139;29;8830;-63
2022/03/02 08:05:26;;;;;;;;;57.50;46.50;4.60;59.70;;;;;;4918097;29;8834;-63
2022/03/02 08:07:52;;;;;;;;;55.25;46.25;4.70;59.40;;;;;;4918074;29;8823;-63
2022/03/02 08:10:19;;;;;;;;;55.25;46.50;5.20;58.80;;;;;;4918118;29;8806;-71
2022/03/02 08:12:45;;;;;;;;;52.00;43.25;5.60;56.60;;;;;;4918157;29;8776;-72
2022/03/02 08:15:12;;;;;;;;;50.50;44.00;5.60;54.60;;;;;;4918087;29;8788;-71
2022/03/02 08:17:38;;;;;;;;;48.00;41.00;5.20;55.60;;;;;;4918057;29;8802;-71
2022/03/02 08:20:05;;;;;;;;;53.75;46.00;4.70;56.70;;;;;;4917990;29;8795;-71
2022/03/02 08:22:34;;;;;;;;;49.25;44.00;4.60;58.60;;;;;;4917954;29;8795;-70
2022/03/02 08:25:11;;;;;;;;;57.00;44.75;5.10;57.20;;;;;;4918250;29;8803;-72
2022/03/02 08:27:43;;;;;;;;;39.25;36.25;5.20;55.70;;;;;;4917708;29;8791;-70
2022/03/02 08:30:11;;;;;;;;;37.75;35.25;5.40;53.70;;;;;;4914855;29;8811;-71
2022/03/02 08:32:45;;;;;;;;;49.75;44.50;5.10;54.10;;;;;;4903054;29;8776;-72
2022/03/02 08:35:11;;;;;;;;;39.50;39.25;5.10;55.10;;;;;;4903037;29;9517;-72
2022/03/02 08:37:38;;;;;;;;;37.75;35.50;4.80;55.00;;;;;;4902841;29;9566;-73
2022/03/02 08:40:06;;;;;;;;;44.25;39.00;4.90;56.10;;;;;;4902810;29;8792;-72
2022/03/02 08:42:33;;;;;;;;;48.00;42.75;5.10;55.70;;;;;;4902747;29;8799;-72
2022/03/02 08:44:59;;;;;;;;;42.75;38.00;5.20;55.70;;;;;;4902937;29;8923;-70
2022/03/02 08:47:25;;;;;;;;;41.00;36.75;5.30;53.70;;;;;;4902731;29;8818;-69
2022/03/02 08:49:54;;;;;;;;;33.00;32.25;5.50;52.40;;;;;;4917444;29;8796;-70
2022/03/02 08:52:25;;;;;;;;;26.00;21.75;5.60;51.60;;;;;;4902857;29;8784;-76
2022/03/02 08:54:51;;;;;;;;;46.50;39.75;5.10;50.80;;;;;;4902859;29;8788;-77
2022/03/02 08:57:18;;;;;;;;;33.75;32.25;5.50;51.50;;;;;;4901403;29;8842;-78
2022/03/02 08:59:45;;;;;;;;;41.25;36.25;5.60;50.20;;;;;;4902789;29;8792;-78
2022/03/02 09:02:16;;;;;;;;;44.25;40.50;5.70;50.60;;;;;;4902483;29;8886;-77
2022/03/02 09:04:43;;;;;;;;;28.25;25.75;6.20;50.90;;;;;;4902748;29;9495;-78
2022/03/02 09:07:09;;;;;;;;;33.50;32.50;6.50;49.30;;;;;;4902642;29;8795;-78
2022/03/02 09:09:35;;;;;;;;;38.25;35.75;6.60;48.70;;;;;;4902181;29;8864;-77
2022/03/02 09:12:03;;;;;;;;;34.50;33.25;6.20;49.30;;;;;;4902487;29;8890;-77
2022/03/02 09:14:28;;;;;;;;;35.75;32.25;6.40;49.30;;;;;;4903103;29;9419;-79
2022/03/02 09:16:54;;;;;;;;;33.25;30.75;6.60;47.60;;;;;;4919915;29;8840;-78
2022/03/02 09:19:20;;;;;;;;;38.50;32.00;6.50;48.90;;;;;;4919821;29;8777;-80
2022/03/02 09:21:46;;;;;;;;;30.25;29.00;6.60;48.40;;;;;;4917292;29;8806;-78
2022/03/02 09:24:12;;;;;;;;;40.00;37.00;6.50;46.80;;;;;;4919871;29;8810;-80
2022/03/02 09:26:39;;;;;;;;;31.50;27.25;6.60;47.40;;;;;;4920200;29;8822;-79
2022/03/02 09:29:07;;;;;;;;;34.25;33.00;6.50;46.80;;;;;;4919794;29;8797;-80
2022/03/02 09:31:36;;;;;;;;;30.50;28.00;6.30;47.70;;;;;;4919930;29;9378;-75
2022/03/02 09:34:07;;;;;;;;;37.25;32.50;6.90;47.40;;;;;;4919855;29;8879;-80
2022/03/02 09:36:37;;;;;;;;;36.50;34.00;7.70;45.90;;;;;;4910523;29;8824;-78
2022/03/02 09:39:08;;;;;;;;;32.25;31.00;7.30;43.90;;;;;;4919564;29;9471;-78
2022/03/02 09:41:54;;;;;;;;;37.50;34.00;7.10;45.20;;;;;;4920527;29;8810;-76
2022/03/02 09:44:25;;;;;;;;;25.75;23.50;6.90;46.50;;;;;;4919545;29;8762;-73
2022/03/02 09:46:57;;;;;;;;;31.75;31.00;7.20;47.70;;;;;;4909253;29;8846;-71
2022/03/02 09:49:27;;;;;;;;;25.25;23.75;7.70;46.00;;;;;;4920531;29;8807;-71
2022/03/02 09:52:09;;;;;;;;;30.75;27.00;7.90;44.20;;;;;;4920576;29;8811;-69
2022/03/02 09:54:39;;;;;;;;;34.00;32.50;7.80;44.00;;;;;;4920544;29;8807;-74
2022/03/02 09:57:07;;;;;;;;;28.25;25.75;7.40;44.20;;;;;;4920736;29;8783;-70
2022/03/02 09:59:36;;;;;;;;;29.50;27.00;7.00;43.80;;;;;;4920248;29;8802;-73
2022/03/02 10:02:06;;;;;;;;;37.00;33.50;7.00;44.30;;;;;;4920336;29;8814;-74
2022/03/02 10:04:35;;;;;;;;;36.75;33.00;8.10;44.40;;;;;;4920658;29;8815;-73
2022/03/02 10:10:05;;;;;;;;;28.00;27.75;9.30;40.70;;;;;;4920237;29;8787;-73
2022/03/02 10:12:32;;;;;;;;;37.00;31.25;8.30;40.60;;;;;;4919951;29;8806;-66
2022/03/02 10:14:58;;;;;;;;;33.25;31.25;8.20;41.90;;;;;;4920028;29;8803;-71
2022/03/02 10:17:32;;;;;;;;;33.00;33.00;8.70;42.20;;;;;;4920220;29;9492;-72
2022/03/02 10:20:10;;;;;;;;;31.75;31.50;9.00;41.50;;;;;;4919436;29;9542;-71
2022/03/02 10:22:54;;;;;;;;;30.50;29.00;9.30;40.50;;;;;;4919662;29;8930;-71
2022/03/02 10:25:30;;;;;;;;;31.50;26.75;9.90;39.50;;;;;;4919846;29;8827;-74
2022/03/02 10:28:06;;;;;;;;;29.00;29.00;9.10;39.80;;;;;;4919741;29;8812;-71
2022/03/02 10:30:41;;;;;;;;;33.75;31.25;9.70;40.00;;;;;;4919876;29;8826;-69
2022/03/02 10:33:24;;;;;;;;;25.75;23.75;10.90;38.70;;;;;;4919747;29;8825;-72
2022/03/02 10:36:04;;;;;;;;;29.75;29.00;10.60;36.80;;;;;;4919657;29;8802;-74
2022/03/02 10:38:59;;;;;;;;;33.00;30.75;11.00;37.10;;;;;;4919633;29;8810;-70
2022/03/02 10:41:27;;;;;;;;;23.75;22.25;12.30;36.10;;;;;;4919509;29;8775;-72
2022/03/02 10:43:53;;;;;;;;;34.00;30.75;14.00;32.50;;;;;;4919789;29;8799;-71
2022/03/02 10:46:24;;;;;;;;;33.33;29.33;13.10;32.40;;;;;;4919477;29;8838;-71
2022/03/02 10:49:17;;;;;;;;;29.67;27.67;12.80;32.80;;;;;;4919840;29;8771;-68
2022/03/02 10:51:45;;;;;;;;;31.67;29.00;12.50;33.20;;;;;;4919289;29;8775;-77
2022/03/02 10:54:17;;;;;;;;;23.67;23.00;12.80;34.40;;;;;;4919425;29;8776;-73
2022/03/02 10:56:44;;;;;;;;;31.33;29.33;13.00;32.90;;;;;;4919273;29;8830;-71
2022/03/02 10:59:16;;;;;;;;;31.67;30.00;14.00;32.50;;;;;;4919327;29;8771;-74
2022/03/02 11:01:44;;;;;;;;;42.00;36.00;13.40;30.50;;;;;;4919839;29;8763;-72
2022/03/02 11:04:10;;;;;;;;;36.00;32.00;13.30;31.60;;;;;;4902333;29;9426;-69
2022/03/02 11:06:38;;;;;;;;;33.33;30.33;14.30;31.20;;;;;;4919323;29;8914;-69
2022/03/02 11:09:05;;;;;;;;;33.67;31.00;14.80;30.00;;;;;;4918880;29;8819;-76
2022/03/02 11:11:38;;;;;;;;;24.33;23.00;17.80;27.70;;;;;;4918937;29;8810;-72
2022/03/02 11:14:08;;;;;;;;;29.00;26.67;20.70;23.50;;;;;;4919172;29;8803;-75
2022/03/02 11:16:33;;;;;;;;;27.67;26.67;25.10;21.90;;;;;;4918880;29;8807;-73
2022/03/02 11:19:11;;;;;;;;;23.00;23.00;23.60;20.00;;;;;;4918710;29;8784;-69
2022/03/02 11:21:39;;;;;;;;;27.00;26.33;27.40;19.20;;;;;;4918733;29;8795;-74
2022/03/02 11:24:05;;;;;;;;;29.33;29.00;26.70;17.70;;;;;;4918758;29;8791;-73
2022/03/02 11:26:34;;;;;;;;;27.67;27.67;25.20;19.80;;;;;;4918676;29;8853;-71
2022/03/02 11:29:07;;;;;;;;;21.67;21.67;26.20;17.80;;;;;;4918885;29;8798;-67
2022/03/02 11:31:45;;;;;;;;;25.00;23.67;24.30;18.40;;;;;;4918708;29;11544;-71
2022/03/02 11:34:15;;;;;;;;;25.00;25.00;26.70;18.50;;;;;;4918988;29;9556;-74
2022/03/02 11:36:45;;;;;;;;;24.67;24.67;28.50;16.80;;;;;;4918595;29;8767;-72
2022/03/02 11:39:12;;;;;;;;;25.00;25.00;27.10;17.20;;;;;;4918386;29;11612;-65
2022/03/02 11:41:41;;;;;;;;;22.00;22.00;29.00;17.30;;;;;;4918235;29;11533;-66
2022/03/02 11:44:26;;;;;;;;;25.00;25.00;30.80;16.30;;;;;;4918337;29;11632;-68
2022/03/02 11:46:52;;;;;;;;;25.33;25.33;32.00;16.00;;;;;;4914732;29;11571;-68
2022/03/02 11:49:18;;;;;;;;;27.33;27.33;29.40;15.80;;;;;;4917033;29;11600;-65
2022/03/02 11:51:44;;;;;;;;;19.67;19.67;29.60;16.40;;;;;;4916839;29;11634;-67
2022/03/02 11:54:10;;;;;;;;;23.33;23.33;28.60;15.90;;;;;;4917198;29;8792;-66
2022/03/02 11:56:37;;;;;;;;;32.00;31.00;28.80;16.90;;;;;;4918215;29;8933;-64
2022/03/02 11:59:10;;;;;;;;;22.33;22.33;27.90;17.10;;;;;;4918430;29;8846;-65
2022/03/02 12:01:53;;;;;;;;;22.33;22.33;30.70;16.10;;;;;;4918116;29;12361;-67
2022/03/02 12:04:19;;;;;;;;;21.50;20.25;26.70;14.70;;;;;;4917720;29;11583;-64
2022/03/02 12:06:52;;;;;;;;;22.33;22.33;28.60;16.30;;;;;;4918056;29;11557;-65
2022/03/02 12:09:25;;;;;;;;;20.67;20.67;30.00;15.60;;;;;;4917896;29;11671;-66
2022/03/02 12:11:51;;;;;;;;;22.33;22.33;27.00;16.00;;;;;;4917873;29;11531;-64
2022/03/02 12:14:17;;;;;;;;;23.33;23.33;27.50;16.60;;;;;;4917982;29;8791;-66
2022/03/02 12:16:52;;;;;;;;;15.25;15.25;29.30;15.90;;;;;;4918034;29;11556;-66
2022/03/02 12:19:22;;;;;;;;;23.00;23.00;27.00;15.20;;;;;;4917727;29;11514;-67
2022/03/02 12:21:49;;;;;;;;;21.75;21.75;29.80;16.30;;;;;;4917840;29;11539;-68
2022/03/02 12:24:30;;;;;;;;;24.33;24.33;29.00;14.50;;;;;;4917836;29;11516;-66
2022/03/02 12:27:10;;;;;;;;;23.00;23.00;30.20;15.40;;;;;;4917932;29;11586;-67
2022/03/02 12:29:39;;;;;;;;;20.33;20.33;30.40;15.20;;;;;;4917708;29;11599;-65
2022/03/02 12:32:17;;;;;;;;;21.00;21.00;27.10;15.70;;;;;;4917764;29;11605;-65
2022/03/02 12:34:51;;;;;;;;;25.67;25.67;30.00;16.10;;;;;;4918369;29;11665;-66
2022/03/02 12:37:18;;;;;;;;;28.33;28.33;29.10;15.40;;;;;;4917810;29;8798;-67
2022/03/02 12:39:45;;;;;;;;;23.33;23.33;29.40;16.30;;;;;;4917895;29;8807;-65
2022/03/02 12:42:12;;;;;;;;;21.00;21.00;30.60;15.20;;;;;;4914201;29;11541;-67
2022/03/02 12:44:44;;;;;;;;;19.25;19.25;30.70;14.50;;;;;;4917289;29;12034;-67
2022/03/02 12:47:18;;;;;;;;;19.25;19.25;30.20;14.80;;;;;;4916782;29;11669;-68
2022/03/02 12:49:45;;;;;;;;;26.00;25.00;30.80;14.60;;;;;;4916087;29;11584;-68
2022/03/02 12:52:12;;;;;;;;;35.33;33.00;28.40;15.80;;;;;;4917329;29;11565;-68